Time;durP1;ratioP1;P1;durP2;ratioP2;P2;SDS_P1;SDS_P2;PMS_P1;PMS_P2;Temp;Humidity;BMP_temperature;BMP_pressure;BME280_temperature;BME280_humidity;BME280_pressure;Samples;Min_cycle;Max_cycle;Signal;HPM_P1;HPM_P2
2023/01/20 05:07:52;;;;;;;10.80;7.85;;;1.20;99.90;;;;;;5013169;28;20614;-66
2023/01/20 05:10:17;;;;;;;9.75;8.20;;;1.20;99.90;;;;;;5014395;28;20182;-64
2023/01/20 05:12:43;;;;;;;13.37;8.23;;;1.20;99.90;;;;;;4996541;28;20167;-66
2023/01/20 05:15:09;;;;;;;11.03;9.47;;;1.20;99.90;;;;;;5014349;28;20249;-65
2023/01/20 05:17:34;;;;;;;9.13;8.10;;;1.20;99.90;;;;;;5014735;28;20171;-65
2023/01/20 05:20:00;;;;;;;11.50;8.07;;;1.20;99.90;;;;;;5015032;28;20488;-64
2023/01/20 05:22:26;;;;;;;9.37;8.40;;;1.20;99.90;;;;;;5014233;28;20190;-65
2023/01/20 05:24:51;;;;;;;13.10;8.70;;;1.20;99.90;;;;;;5013977;28;20198;-65
2023/01/20 05:27:17;;;;;;;9.40;6.80;;;1.20;99.90;;;;;;5014260;28;20177;-64
2023/01/20 05:29:42;;;;;;;14.00;8.40;;;1.30;99.90;;;;;;5014211;28;20189;-64
2023/01/20 05:32:08;;;;;;;13.20;8.57;;;1.20;99.90;;;;;;5014062;28;20285;-65
2023/01/20 05:34:33;;;;;;;13.77;9.50;;;1.20;99.90;;;;;;5012345;28;20241;-64
2023/01/20 05:36:59;;;;;;;13.40;9.37;;;1.20;99.90;;;;;;5014151;28;20171;-64
2023/01/20 05:39:24;;;;;;;10.67;8.03;;;1.20;99.90;;;;;;5014090;28;20652;-64
2023/01/20 05:41:50;;;;;;;10.40;8.50;;;1.20;99.90;;;;;;5013898;28;20175;-64
2023/01/20 05:44:16;;;;;;;10.73;8.57;;;1.20;99.90;;;;;;5013490;28;20194;-65
2023/01/20 05:46:41;;;;;;;9.23;7.43;;;1.20;99.90;;;;;;5013876;28;20261;-65
2023/01/20 05:49:09;;;;;;;12.00;8.80;;;1.20;99.90;;;;;;4996309;28;20171;-65
2023/01/20 05:51:35;;;;;;;12.98;7.85;;;1.20;99.90;;;;;;5013665;28;20360;-64
2023/01/20 05:54:01;;;;;;;8.90;8.00;;;1.20;99.90;;;;;;5013244;28;20281;-65
2023/01/20 05:56:26;;;;;;;15.10;9.07;;;1.20;99.90;;;;;;5013819;28;20167;-65
2023/01/20 05:58:55;;;;;;;11.50;8.80;;;1.20;99.90;;;;;;5013654;28;20632;-65
2023/01/20 06:01:20;;;;;;;9.57;7.82;;;1.20;99.90;;;;;;5009326;28;20175;-64
2023/01/20 06:03:46;;;;;;;12.40;10.37;;;1.20;99.90;;;;;;5002787;28;20203;-64
2023/01/20 06:06:17;;;;;;;10.57;7.60;;;1.20;99.90;;;;;;4985273;28;20222;-67
2023/01/20 06:08:43;;;;;;;6.90;6.40;;;1.20;99.90;;;;;;5002316;28;20170;-65
2023/01/20 06:11:10;;;;;;;8.95;7.75;;;1.10;99.90;;;;;;5002673;28;20209;-66
2023/01/20 06:13:35;;;;;;;12.23;8.30;;;1.10;99.90;;;;;;5006917;28;20182;-67
2023/01/20 06:16:01;;;;;;;9.53;7.30;;;1.10;99.90;;;;;;4999684;28;20596;-68
2023/01/20 06:18:29;;;;;;;8.90;6.80;;;1.10;99.90;;;;;;4994056;28;20633;-68
2023/01/20 06:20:57;;;;;;;8.70;7.72;;;1.10;99.90;;;;;;4993876;28;20845;-69
2023/01/20 06:23:23;;;;;;;8.23;6.43;;;1.00;99.90;;;;;;4993542;28;20170;-68
2023/01/20 06:25:58;;;;;;;9.13;6.80;;;1.00;99.90;;;;;;4994084;28;20234;-68
2023/01/20 06:28:23;;;;;;;7.20;6.38;;;1.00;99.90;;;;;;4993750;28;20179;-70
2023/01/20 06:30:49;;;;;;;7.70;6.80;;;1.00;99.90;;;;;;4993756;28;20192;-68
2023/01/20 06:33:14;;;;;;;9.00;7.90;;;1.00;99.90;;;;;;4995944;28;20210;-69
2023/01/20 06:35:40;;;;;;;12.00;8.20;;;1.00;99.90;;;;;;5013099;28;20221;-65
2023/01/20 06:38:05;;;;;;;9.63;7.70;;;1.00;99.90;;;;;;4998351;28;20176;-63
2023/01/20 06:40:31;;;;;;;7.67;6.97;;;1.00;99.90;;;;;;4983850;28;20183;-68
2023/01/20 06:42:58;;;;;;;13.73;8.97;;;1.00;99.90;;;;;;5002941;28;20644;-66
2023/01/20 06:45:23;;;;;;;8.27;6.70;;;1.00;99.90;;;;;;5004689;28;20821;-64
2023/01/20 06:47:49;;;;;;;11.20;8.17;;;1.00;99.90;;;;;;5005032;28;20181;-66
2023/01/20 06:50:15;;;;;;;6.73;5.90;;;1.00;99.90;;;;;;5012925;28;20249;-66
2023/01/20 06:52:41;;;;;;;7.97;6.32;;;1.00;99.90;;;;;;5013211;28;20171;-67
2023/01/20 06:55:07;;;;;;;17.33;10.70;;;1.00;99.90;;;;;;5013143;28;20198;-66
2023/01/20 06:57:32;;;;;;;7.80;5.93;;;1.00;99.90;;;;;;4984613;28;20175;-66
2023/01/20 06:59:58;;;;;;;9.20;6.80;;;1.00;99.90;;;;;;4993313;28;20402;-67
2023/01/20 07:02:24;;;;;;;11.40;8.97;;;1.00;99.90;;;;;;5007839;28;20225;-67
2023/01/20 07:04:52;;;;;;;11.17;7.23;;;0.90;99.90;;;;;;5012536;28;20214;-67
2023/01/20 07:07:18;;;;;;;7.65;6.70;;;1.00;99.90;;;;;;5012781;28;20475;-67
2023/01/20 07:09:43;;;;;;;8.50;6.20;;;1.00;99.90;;;;;;5011254;28;20175;-68
2023/01/20 07:12:09;;;;;;;9.10;6.60;;;1.00;99.90;;;;;;4994748;28;20215;-67
2023/01/20 07:14:35;;;;;;;9.80;6.97;;;1.00;99.90;;;;;;5006636;28;20286;-66
2023/01/20 07:17:00;;;;;;;8.77;7.27;;;1.00;99.90;;;;;;5006927;28;20175;-67
2023/01/20 07:19:26;;;;;;;8.50;6.70;;;1.00;99.90;;;;;;4994105;28;20172;-67
2023/01/20 07:21:51;;;;;;;9.03;6.93;;;1.10;99.90;;;;;;4992878;28;20238;-67
2023/01/20 07:24:33;;;;;;;10.57;7.80;;;1.10;99.90;;;;;;5009567;28;20214;-68
2023/01/20 07:27:01;;;;;;;7.00;5.78;;;1.20;99.90;;;;;;5011919;28;20186;-67
2023/01/20 07:29:27;;;;;;;13.97;8.30;;;1.20;99.90;;;;;;5014900;28;20648;-67
2023/01/20 07:31:52;;;;;;;9.33;6.07;;;1.20;99.90;;;;;;5016434;28;20194;-67
2023/01/20 07:34:18;;;;;;;9.60;7.63;;;1.20;99.90;;;;;;5015919;28;20186;-67
2023/01/20 07:36:44;;;;;;;8.93;7.93;;;1.20;99.90;;;;;;5016761;28;20171;-67
2023/01/20 07:39:10;;;;;;;8.97;7.17;;;1.20;99.90;;;;;;5016182;28;20540;-67
2023/01/20 07:41:36;;;;;;;11.35;7.05;;;1.30;99.90;;;;;;5016193;28;20621;-67
2023/01/20 07:44:01;;;;;;;9.00;6.20;;;1.30;99.90;;;;;;5015612;28;20193;-68
2023/01/20 07:46:27;;;;;;;11.23;6.43;;;1.30;99.90;;;;;;5015825;28;20540;-67
2023/01/20 07:48:54;;;;;;;12.33;8.17;;;1.30;99.90;;;;;;5016361;28;20213;-68
2023/01/20 07:51:19;;;;;;;9.48;6.55;;;1.30;99.90;;;;;;5016098;28;20596;-67
2023/01/20 07:53:48;;;;;;;6.43;5.83;;;1.30;99.90;;;;;;5015584;28;20194;-68
2023/01/20 07:56:28;;;;;;;13.50;7.88;;;1.40;99.90;;;;;;5016044;28;20159;-67
2023/01/20 07:58:54;;;;;;;9.15;6.57;;;1.40;99.90;;;;;;4998412;28;20170;-67
2023/01/20 08:01:22;;;;;;;6.85;6.07;;;1.40;99.90;;;;;;5016150;28;20175;-67
2023/01/20 08:03:49;;;;;;;8.63;6.60;;;1.40;99.90;;;;;;5015623;28;20222;-67
2023/01/20 08:06:16;;;;;;;11.82;7.57;;;1.50;99.90;;;;;;5015809;28;20178;-68
2023/01/20 08:08:42;;;;;;;6.60;5.95;;;1.60;99.90;;;;;;5015626;28;20194;-67
2023/01/20 08:11:10;;;;;;;9.57;6.30;;;1.70;99.90;;;;;;5015778;28;20233;-67
2023/01/20 08:13:36;;;;;;;11.48;8.07;;;1.70;99.90;;;;;;5015236;28;20441;-66
2023/01/20 08:16:04;;;;;;;11.57;8.30;;;1.90;99.90;;;;;;5015709;28;20198;-66
2023/01/20 08:18:32;;;;;;;11.82;8.13;;;2.00;99.90;;;;;;5015652;28;20177;-66
2023/01/20 08:20:58;;;;;;;8.90;7.22;;;2.10;99.90;;;;;;5015508;28;20652;-66
2023/01/20 08:23:24;;;;;;;9.95;7.63;;;2.30;99.90;;;;;;5014771;28;20179;-67
2023/01/20 08:26:00;;;;;;;8.40;7.37;;;2.40;99.90;;;;;;5015522;28;20229;-67
2023/01/20 08:28:27;;;;;;;13.13;9.00;;;2.50;99.90;;;;;;5015658;28;20176;-67
2023/01/20 08:30:53;;;;;;;8.10;6.10;;;2.60;99.90;;;;;;5015235;28;20203;-67
2023/01/20 08:33:19;;;;;;;16.00;7.07;;;2.70;99.90;;;;;;5015097;28;20170;-67
2023/01/20 08:35:45;;;;;;;12.27;7.13;;;2.70;99.90;;;;;;5014644;28;20215;-67
2023/01/20 08:38:11;;;;;;;6.73;5.93;;;2.70;99.90;;;;;;5014346;28;20637;-68
2023/01/20 08:40:39;;;;;;;7.70;6.40;;;2.80;99.90;;;;;;5013854;28;20227;-67
2023/01/20 08:43:05;;;;;;;11.43;8.18;;;2.80;99.90;;;;;;5014801;28;20691;-67
2023/01/20 08:45:30;;;;;;;7.37;6.67;;;2.80;99.90;;;;;;5015290;28;20194;-66
2023/01/20 08:47:56;;;;;;;6.07;5.47;;;2.80;99.90;;;;;;5015136;28;20178;-67
2023/01/20 08:50:23;;;;;;;6.57;5.90;;;2.80;99.90;;;;;;5015023;28;20183;-67
2023/01/20 08:52:48;;;;;;;6.90;6.20;;;2.80;99.90;;;;;;5014484;28;20178;-67
2023/01/20 08:55:14;;;;;;;6.97;5.80;;;2.80;99.90;;;;;;5014937;28;20695;-67
2023/01/20 08:57:40;;;;;;;5.93;5.30;;;2.80;99.90;;;;;;4997291;28;20636;-67
2023/01/20 09:00:09;;;;;;;10.77;7.87;;;2.80;99.90;;;;;;5014793;28;20167;-67
2023/01/20 09:02:36;;;;;;;13.73;6.18;;;2.80;99.90;;;;;;5014534;28;20185;-71
2023/01/20 09:05:04;;;;;;;8.95;6.25;;;2.80;99.90;;;;;;5014508;28;20266;-67
2023/01/20 09:07:29;;;;;;;10.32;6.55;;;2.80;99.90;;;;;;4996958;28;20214;-67
2023/01/20 09:09:55;;;;;;;9.23;6.93;;;2.80;99.90;;;;;;5014940;28;20209;-67
2023/01/20 09:12:20;;;;;;;10.50;6.90;;;2.90;99.90;;;;;;5014946;28;20194;-67
2023/01/20 09:14:46;;;;;;;7.57;6.77;;;2.90;99.90;;;;;;5014165;28;20585;-67
2023/01/20 09:17:13;;;;;;;7.10;6.40;;;3.00;99.90;;;;;;5014250;28;20178;-67
2023/01/20 09:19:39;;;;;;;6.80;6.20;;;3.10;99.90;;;;;;5014591;28;20209;-67
2023/01/20 09:22:05;;;;;;;9.75;6.43;;;3.20;99.90;;;;;;5014190;28;20584;-67
2023/01/20 09:24:31;;;;;;;7.70;6.90;;;3.20;99.90;;;;;;5013881;28;20196;-67
2023/01/20 09:26:57;;;;;;;8.30;6.90;;;3.20;99.90;;;;;;5014267;28;20509;-67
2023/01/20 09:29:23;;;;;;;7.32;6.28;;;3.20;99.90;;;;;;5014395;28;20203;-67
2023/01/20 09:31:50;;;;;;;8.05;5.35;;;3.30;99.90;;;;;;5014357;28;20680;-67
2023/01/20 09:34:23;;;;;;;7.25;6.65;;;3.30;99.90;;;;;;5013731;28;20191;-67
2023/01/20 09:36:53;;;;;;;10.00;7.03;;;3.50;99.90;;;;;;5013710;28;20291;-68
2023/01/20 09:45:32;;;;;;;8.05;7.25;;;3.50;99.90;;;;;;5014241;28;20620;-68
2023/01/20 09:48:13;;;;;;;7.72;6.25;;;3.60;99.90;;;;;;5014247;28;20178;-68
2023/01/20 09:54:14;;;;;;;8.60;7.65;;;3.70;99.90;;;;;;5013772;28;20180;-67
2023/01/20 09:56:45;;;;;;;7.30;6.50;;;3.80;99.90;;;;;;4934240;29;20178;-67
2023/01/20 09:59:29;;;;;;;9.20;5.80;;;3.90;99.90;;;;;;4934503;29;20267;-67
2023/01/20 10:01:59;;;;;;;10.00;6.38;;;4.00;99.90;;;;;;4934682;29;20222;-67
2023/01/20 10:04:40;;;;;;;6.70;5.50;;;4.10;99.90;;;;;;4933431;29;20734;-68
2023/01/20 10:07:06;;;;;;;8.10;6.30;;;4.30;99.90;;;;;;4934104;29;20232;-67
2023/01/20 10:09:47;;;;;;;7.57;6.30;;;4.70;99.90;;;;;;4918270;29;20174;-68
2023/01/20 10:12:30;;;;;;;9.55;7.70;;;5.00;99.90;;;;;;4934233;29;20196;-67
2023/01/20 10:15:11;;;;;;;8.43;6.78;;;5.10;99.90;;;;;;4933717;29;20197;-67
2023/01/20 10:17:52;;;;;;;8.15;6.15;;;5.20;99.90;;;;;;4934033;29;20177;-67
2023/01/20 10:20:39;;;;;;;5.82;4.45;;;5.10;99.90;;;;;;4933787;29;20189;-68
2023/01/20 10:23:20;;;;;;;7.22;5.75;;;5.00;99.90;;;;;;4933672;29;20178;-67
2023/01/20 10:26:09;;;;;;;8.30;5.85;;;5.00;99.90;;;;;;4933524;29;20200;-67
2023/01/20 10:28:39;;;;;;;10.50;5.60;;;5.10;99.90;;;;;;5010721;28;20178;-67
2023/01/20 10:31:05;;;;;;;11.65;6.68;;;5.20;99.90;;;;;;5013294;28;20232;-67
2023/01/20 10:33:41;;;;;;;7.07;6.37;;;5.30;99.90;;;;;;5012911;28;20253;-66
2023/01/20 10:36:23;;;;;;;8.60;6.13;;;5.50;99.90;;;;;;5013509;28;20181;-67
2023/01/20 10:39:09;;;;;;;7.20;6.45;;;5.70;99.90;;;;;;5009728;28;20175;-68
2023/01/20 10:41:59;;;;;;;7.75;6.70;;;5.80;99.90;;;;;;4981972;28;20189;-69
2023/01/20 10:44:25;;;;;;;10.80;6.75;;;6.00;99.90;;;;;;5012822;28;20557;-67
2023/01/20 10:46:56;;;;;;;8.23;6.15;;;6.10;99.90;;;;;;4995560;28;20265;-65
2023/01/20 10:49:40;;;;;;;9.73;6.05;;;6.10;99.90;;;;;;4990737;28;20208;-67
2023/01/20 10:52:53;;;;;;;8.73;6.57;;;6.00;99.90;;;;;;5013043;28;20205;-67
2023/01/20 10:55:34;;;;;;;11.80;7.40;;;5.70;99.90;;;;;;4940720;28;20219;-67
2023/01/20 10:58:13;;;;;;;7.25;6.63;;;5.40;99.90;;;;;;5002111;28;20532;-67
2023/01/20 11:00:39;;;;;;;6.82;5.57;;;5.10;99.90;;;;;;4993284;28;20171;-67
2023/01/20 11:03:09;;;;;;;7.30;5.30;;;4.90;99.90;;;;;;4995951;28;20177;-65
2023/01/20 11:05:37;;;;;;;7.80;7.00;;;4.90;99.90;;;;;;4989568;28;20666;-65
2023/01/20 11:08:26;;;;;;;8.02;6.45;;;4.90;99.90;;;;;;5017039;28;20266;-68
2023/01/20 11:10:55;;;;;;;8.57;6.20;;;5.00;99.90;;;;;;5000929;28;20195;-65
2023/01/20 11:13:21;;;;;;;9.90;7.53;;;5.10;99.90;;;;;;4988992;28;20643;-67
2023/01/20 11:15:50;;;;;;;8.50;6.60;;;5.20;99.90;;;;;;5008571;28;20218;-67
2023/01/20 11:18:15;;;;;;;8.00;7.20;;;5.30;99.90;;;;;;5006986;28;20179;-66
2023/01/20 11:21:03;;;;;;;9.40;6.50;;;5.40;99.90;;;;;;5007099;28;20221;-66
2023/01/20 11:23:31;;;;;;;7.20;6.50;;;5.40;99.90;;;;;;5005470;28;20187;-65
2023/01/20 11:26:00;;;;;;;10.20;7.10;;;5.50;99.90;;;;;;5005524;28;20228;-66
2023/01/20 11:28:30;;;;;;;12.25;6.88;;;5.50;99.90;;;;;;5005967;28;20175;-66
2023/01/20 11:30:56;;;;;;;9.40;6.85;;;5.40;99.90;;;;;;5006512;28;20672;-67
2023/01/20 11:33:25;;;;;;;8.85;6.97;;;5.30;99.90;;;;;;5016087;28;20566;-67
2023/01/20 11:36:22;;;;;;;8.43;6.45;;;5.20;99.90;;;;;;5016284;28;20167;-67
2023/01/20 11:38:49;;;;;;;11.05;7.20;;;5.30;99.90;;;;;;5002206;28;20174;-67
2023/01/20 11:41:21;;;;;;;7.35;6.50;;;5.40;99.90;;;;;;4999509;28;20184;-67
2023/01/20 11:43:49;;;;;;;10.38;7.40;;;5.50;99.90;;;;;;5015646;28;20664;-66
2023/01/20 11:46:18;;;;;;;10.77;7.40;;;5.50;99.90;;;;;;5016199;28;20539;-66
2023/01/20 11:48:44;;;;;;;7.10;6.30;;;5.50;99.90;;;;;;5011236;28;20264;-66
2023/01/20 11:51:27;;;;;;;6.10;4.30;;;5.50;99.90;;;;;;4979021;28;20284;-66
2023/01/20 11:54:14;;;;;;;6.00;4.40;;;5.50;99.90;;;;;;5008731;28;20464;-66
2023/01/20 11:56:42;;;;;;;5.88;4.72;;;5.30;99.90;;;;;;5015550;28;20259;-68
2023/01/20 11:59:29;;;;;;;4.72;4.32;;;5.20;99.90;;;;;;5009935;28;20173;-66
2023/01/20 12:02:01;;;;;;;7.60;5.60;;;5.20;99.90;;;;;;5016059;28;20218;-67
2023/01/20 12:04:45;;;;;;;4.97;4.43;;;5.20;99.90;;;;;;5015450;28;20188;-68
2023/01/20 12:07:17;;;;;;;5.07;4.20;;;5.10;99.90;;;;;;5015747;28;20183;-67
2023/01/20 12:09:48;;;;;;;5.95;4.55;;;5.00;99.90;;;;;;5015780;28;20181;-67
2023/01/20 12:12:28;;;;;;;6.40;4.88;;;5.00;99.90;;;;;;5015636;28;20217;-68
2023/01/20 12:15:04;;;;;;;4.25;3.85;;;5.00;99.90;;;;;;5002360;28;20280;-67
2023/01/20 12:17:40;;;;;;;5.40;4.03;;;5.00;99.90;;;;;;4996509;28;20178;-67
2023/01/20 12:20:12;;;;;;;7.43;4.18;;;4.90;99.90;;;;;;4995968;28;20526;-67
2023/01/20 12:22:56;;;;;;;4.88;3.90;;;4.90;99.90;;;;;;4995754;28;20220;-64
2023/01/20 12:25:26;;;;;;;6.40;4.15;;;4.90;99.90;;;;;;5000759;28;20209;-69
2023/01/20 12:28:08;;;;;;;4.40;4.05;;;4.80;99.90;;;;;;5007867;28;20175;-68
2023/01/20 12:30:57;;;;;;;6.80;4.70;;;4.60;99.90;;;;;;4995904;28;20181;-69
2023/01/20 12:33:34;;;;;;;8.13;6.45;;;4.40;99.90;;;;;;5008153;28;20171;-69
2023/01/20 12:35:59;;;;;;;5.57;5.03;;;4.30;99.90;;;;;;5015339;28;20210;-68
2023/01/20 12:38:28;;;;;;;8.43;4.80;;;4.30;99.90;;;;;;5003884;28;20573;-68
2023/01/20 12:40:56;;;;;;;4.30;3.92;;;4.40;99.90;;;;;;5008184;28;20179;-69
2023/01/20 12:43:27;;;;;;;4.30;3.50;;;4.60;99.90;;;;;;5014596;28;20224;-69
2023/01/20 12:46:13;;;;;;;4.05;3.65;;;4.70;99.90;;;;;;5015027;28;20203;-68
2023/01/20 12:49:02;;;;;;;6.30;3.72;;;4.80;99.90;;;;;;5015030;28;20160;-67
2023/01/20 12:51:42;;;;;;;4.13;3.20;;;5.10;99.90;;;;;;5015012;28;20230;-69
2023/01/20 12:54:21;;;;;;;4.22;3.13;;;5.20;99.90;;;;;;5014170;28;20228;-67
2023/01/20 12:57:12;;;;;;;3.00;2.80;;;5.30;99.90;;;;;;5008892;28;20181;-68
2023/01/20 12:59:44;;;;;;;3.38;3.08;;;5.40;99.90;;;;;;5001462;28;20246;-67
2023/01/20 13:02:17;;;;;;;4.68;3.83;;;5.30;99.90;;;;;;5014055;28;20193;-67
2023/01/20 13:05:11;;;;;;;4.65;3.47;;;5.30;99.90;;;;;;5001255;28;20194;-66
2023/01/20 13:07:42;;;;;;;2.47;2.28;;;5.30;99.90;;;;;;5003307;28;20555;-67
2023/01/20 13:10:36;;;;;;;3.97;3.67;;;5.30;99.90;;;;;;5014489;28;20167;-67
2023/01/20 13:13:39;;;;;;;3.90;3.47;;;5.30;99.90;;;;;;5014222;28;20244;-66
2023/01/20 13:16:17;;;;;;;4.45;3.78;;;5.20;99.90;;;;;;5013878;28;20174;-67
2023/01/20 13:19:16;;;;;;;3.58;3.28;;;5.10;99.90;;;;;;4996326;28;20170;-67
2023/01/20 13:21:42;;;;;;;4.63;3.30;;;5.10;99.90;;;;;;5014026;28;20184;-67
2023/01/20 13:24:23;;;;;;;4.70;4.30;;;5.10;99.90;;;;;;5013383;28;20190;-67
2023/01/20 13:26:49;;;;;;;3.10;2.80;;;5.10;99.90;;;;;;5012654;28;20815;-66
2023/01/20 13:29:40;;;;;;;5.05;3.90;;;5.10;99.90;;;;;;5013541;28;20263;-67
2023/01/20 13:32:26;;;;;;;3.35;3.08;;;5.00;99.90;;;;;;5013316;28;20203;-68
2023/01/20 13:34:52;;;;;;;3.67;3.38;;;5.00;99.90;;;;;;5013205;28;20234;-67
2023/01/20 13:37:34;;;;;;;3.90;3.50;;;5.00;99.90;;;;;;5013568;28;20170;-68
2023/01/20 13:39:59;;;;;;;4.22;3.75;;;5.00;99.90;;;;;;5013750;28;20765;-66
2023/01/20 13:42:47;;;;;;;5.00;3.43;;;5.00;99.90;;;;;;5013957;28;20174;-67
2023/01/20 13:45:12;;;;;;;3.92;3.63;;;5.00;99.90;;;;;;5013020;28;20190;-68
2023/01/20 13:48:19;;;;;;;6.17;3.87;;;4.90;99.90;;;;;;5012071;28;20663;-68
2023/01/20 13:50:46;;;;;;;5.55;3.53;;;4.90;99.90;;;;;;5012187;28;20605;-68
2023/01/20 13:53:21;;;;;;;3.53;3.25;;;4.90;99.90;;;;;;4994235;28;20172;-68
2023/01/20 13:55:49;;;;;;;4.55;3.80;;;4.80;99.90;;;;;;5011965;28;20190;-68
2023/01/20 13:58:18;;;;;;;10.10;4.35;;;4.70;99.90;;;;;;5012108;28;20527;-67
2023/01/20 14:00:44;;;;;;;4.82;3.35;;;4.70;99.90;;;;;;5012739;28;20177;-67
2023/01/20 14:03:39;;;;;;;3.85;3.50;;;4.60;99.90;;;;;;4995504;28;20199;-67
2023/01/20 14:06:19;;;;;;;4.28;3.97;;;4.60;99.90;;;;;;5013184;28;20190;-67
2023/01/20 14:08:50;;;;;;;3.63;3.17;;;4.50;99.90;;;;;;5013778;28;20175;-67
2023/01/20 14:11:22;;;;;;;3.55;3.10;;;4.40;99.90;;;;;;5013673;28;20225;-66
2023/01/20 14:14:06;;;;;;;5.00;4.50;;;4.30;99.90;;;;;;5013220;28;20183;-66
2023/01/20 14:16:34;;;;;;;4.00;3.60;;;4.20;99.90;;;;;;4995497;28;20213;-68
2023/01/20 14:19:31;;;;;;;4.07;3.72;;;4.20;99.90;;;;;;5013538;28;20163;-67
2023/01/20 14:22:00;;;;;;;5.65;4.13;;;4.10;99.90;;;;;;5013372;28;20171;-68
2023/01/20 14:24:29;;;;;;;3.90;3.60;;;4.00;99.90;;;;;;5013189;28;20202;-66
2023/01/20 14:27:27;;;;;;;3.40;3.17;;;3.90;99.90;;;;;;5013506;28;20167;-67
2023/01/20 14:29:54;;;;;;;3.20;3.00;;;3.90;99.90;;;;;;4994177;28;20179;-66
2023/01/20 14:32:25;;;;;;;4.32;3.35;;;3.80;99.90;;;;;;5013348;28;20230;-66
2023/01/20 14:34:54;;;;;;;3.58;3.28;;;3.60;99.90;;;;;;5012706;28;20305;-66
2023/01/20 14:37:30;;;;;;;3.28;2.67;;;3.60;99.90;;;;;;5013141;28;20162;-66
2023/01/20 14:39:58;;;;;;;3.50;3.20;;;3.50;99.90;;;;;;5016793;28;20176;-67
2023/01/20 14:42:25;;;;;;;4.10;3.38;;;3.50;99.90;;;;;;5017412;28;20166;-67
2023/01/20 14:44:52;;;;;;;6.40;3.28;;;3.40;99.90;;;;;;5016739;28;20707;-68
2023/01/20 14:47:20;;;;;;;3.63;3.33;;;3.40;99.90;;;;;;5017350;28;20274;-66
2023/01/20 14:49:50;;;;;;;2.80;2.60;;;3.30;99.90;;;;;;5017242;28;20175;-66
2023/01/20 14:52:20;;;;;;;3.58;2.90;;;3.30;99.90;;;;;;5017151;28;20563;-65
2023/01/20 14:54:50;;;;;;;3.20;3.00;;;3.30;99.90;;;;;;5016855;28;20692;-66
2023/01/20 14:57:26;;;;;;;4.65;4.07;;;3.30;99.90;;;;;;5017347;28;20167;-66
2023/01/20 15:00:17;;;;;;;3.40;3.08;;;3.20;99.90;;;;;;5016725;28;20171;-66
2023/01/20 15:02:45;;;;;;;3.17;2.92;;;3.20;99.90;;;;;;5016892;28;20623;-66
2023/01/20 15:05:21;;;;;;;4.93;4.15;;;3.20;99.90;;;;;;5016934;28;20187;-67
2023/01/20 15:07:47;;;;;;;5.13;3.97;;;3.20;99.90;;;;;;5016986;28;20265;-67
2023/01/20 15:10:16;;;;;;;7.43;3.67;;;3.20;99.90;;;;;;5017052;28;20206;-67
2023/01/20 15:12:47;;;;;;;4.90;3.67;;;3.20;99.90;;;;;;5016231;28;20252;-67
2023/01/20 15:15:27;;;;;;;3.58;2.60;;;3.30;99.90;;;;;;5016907;28;20187;-67
2023/01/20 15:18:11;;;;;;;4.05;2.90;;;3.30;99.90;;;;;;5016555;28;20170;-67
2023/01/20 15:20:40;;;;;;;3.25;2.63;;;3.30;99.90;;;;;;5016622;28;20175;-66
2023/01/20 15:23:19;;;;;;;5.03;2.80;;;3.30;99.90;;;;;;5016320;28;20528;-67
2023/01/20 15:25:46;;;;;;;3.88;3.47;;;3.30;99.90;;;;;;5016479;28;20187;-67
2023/01/20 15:28:29;;;;;;;4.32;3.15;;;3.30;99.90;;;;;;5016409;28;20186;-67
2023/01/20 15:30:57;;;;;;;3.45;2.40;;;3.30;99.90;;;;;;5016693;28;20221;-66
2023/01/20 15:33:24;;;;;;;3.17;2.92;;;3.20;99.90;;;;;;5016118;28;20185;-66
2023/01/20 15:35:55;;;;;;;3.22;2.97;;;3.20;99.90;;;;;;5016393;28;20163;-68
2023/01/20 15:38:21;;;;;;;3.30;3.03;;;3.10;99.90;;;;;;5016368;28;20254;-67
2023/01/20 15:40:47;;;;;;;3.90;2.77;;;3.00;99.90;;;;;;4998452;28;20262;-66
2023/01/20 15:43:16;;;;;;;3.07;2.77;;;2.90;99.90;;;;;;5016033;28;20175;-66
2023/01/20 15:45:43;;;;;;;3.08;2.67;;;2.70;99.90;;;;;;5016274;28;20282;-66
2023/01/20 15:48:17;;;;;;;3.00;2.80;;;2.70;99.90;;;;;;5016201;28;20537;-65
2023/01/20 15:50:43;;;;;;;3.92;3.63;;;2.60;99.90;;;;;;5015466;28;20599;-67
2023/01/20 15:53:10;;;;;;;3.40;2.85;;;2.50;99.90;;;;;;5015641;28;20205;-67
2023/01/20 15:55:45;;;;;;;2.17;2.00;;;2.40;99.90;;;;;;5015816;28;20194;-67
2023/01/20 15:58:31;;;;;;;3.85;3.25;;;2.30;99.90;;;;;;5016375;28;20181;-67
2023/01/20 16:00:58;;;;;;;5.45;3.30;;;2.20;99.90;;;;;;5016288;28;20175;-67
2023/01/20 16:03:25;;;;;;;4.18;3.78;;;2.10;99.90;;;;;;5015430;28;20245;-66
2023/01/20 16:05:52;;;;;;;4.75;3.33;;;2.00;99.90;;;;;;5014798;28;20194;-67
2023/01/20 16:08:24;;;;;;;4.43;3.28;;;2.00;99.90;;;;;;5015154;28;20179;-67
2023/01/20 16:10:49;;;;;;;7.20;3.75;;;1.90;99.90;;;;;;5013487;28;20199;-67
2023/01/20 16:13:15;;;;;;;7.40;4.47;;;1.90;99.90;;;;;;5014106;28;20174;-67
2023/01/20 16:15:42;;;;;;;7.57;3.90;;;1.80;99.90;;;;;;5015090;28;20253;-67
2023/01/20 16:18:13;;;;;;;8.38;6.20;;;1.70;99.90;;;;;;5015348;28;20632;-67
2023/01/20 16:20:39;;;;;;;5.20;4.00;;;1.60;99.90;;;;;;5015630;28;20177;-66
2023/01/20 16:23:05;;;;;;;4.40;4.03;;;1.50;99.90;;;;;;5009696;28;20168;-64
2023/01/20 16:25:31;;;;;;;6.93;3.90;;;1.40;99.90;;;;;;4996000;28;20480;-64
2023/01/20 16:27:58;;;;;;;6.63;4.10;;;1.30;99.90;;;;;;4998719;28;20199;-65
2023/01/20 16:30:24;;;;;;;3.67;3.38;;;1.20;99.90;;;;;;5013499;28;20171;-66
2023/01/20 16:32:49;;;;;;;4.18;3.67;;;1.20;99.90;;;;;;5015028;28;20175;-68
2023/01/20 16:35:18;;;;;;;4.03;3.60;;;1.10;99.90;;;;;;5015362;28;20221;-65
2023/01/20 16:37:46;;;;;;;5.15;4.75;;;1.00;99.90;;;;;;5014445;28;20445;-66
2023/01/20 16:40:18;;;;;;;9.07;3.95;;;1.00;99.90;;;;;;4986690;28;20237;-66
2023/01/20 16:42:44;;;;;;;4.13;3.58;;;0.90;99.90;;;;;;4995412;28;20175;-66
2023/01/20 16:45:21;;;;;;;5.03;3.70;;;0.90;99.90;;;;;;5008497;28;20191;-66
2023/01/20 16:47:48;;;;;;;5.63;4.80;;;0.80;99.90;;;;;;5014935;28;20425;-66
2023/01/20 16:50:13;;;;;;;9.15;4.15;;;0.80;99.90;;;;;;5015192;28;20290;-68
2023/01/20 16:52:39;;;;;;;6.47;5.40;;;0.80;99.90;;;;;;5006804;28;20687;-68
2023/01/20 16:55:05;;;;;;;4.30;3.63;;;0.80;99.90;;;;;;5012015;28;20440;-68
2023/01/20 16:57:30;;;;;;;4.17;3.70;;;0.80;99.90;;;;;;5014623;28;20174;-68
2023/01/20 16:59:56;;;;;;;4.50;3.93;;;0.70;99.90;;;;;;5014675;28;20421;-68
2023/01/20 17:02:22;;;;;;;10.17;4.70;;;0.70;99.90;;;;;;5013531;28;20178;-67
2023/01/20 17:04:47;;;;;;;5.60;4.27;;;0.70;99.90;;;;;;5014039;28;20240;-69
2023/01/20 17:07:13;;;;;;;7.00;4.40;;;0.60;99.90;;;;;;5013761;28;20273;-67
2023/01/20 17:09:38;;;;;;;5.80;4.07;;;0.60;99.90;;;;;;5011528;28;20174;-68
2023/01/20 17:12:04;;;;;;;4.93;3.60;;;0.60;99.90;;;;;;5013557;28;20205;-69
2023/01/20 17:14:29;;;;;;;3.70;3.40;;;0.50;99.90;;;;;;5010713;28;20233;-69
2023/01/20 17:16:55;;;;;;;8.10;3.83;;;0.50;99.90;;;;;;5014209;28;20552;-69
2023/01/20 17:19:22;;;;;;;5.03;4.63;;;0.50;99.90;;;;;;5014490;28;20197;-68
2023/01/20 17:21:49;;;;;;;5.38;4.43;;;0.40;99.90;;;;;;5014455;28;20512;-69
2023/01/20 17:24:14;;;;;;;3.90;3.60;;;0.40;99.90;;;;;;5013419;28;20595;-68
2023/01/20 17:26:40;;;;;;;3.53;3.33;;;0.40;99.90;;;;;;4992303;28;20175;-68
2023/01/20 17:29:07;;;;;;;6.40;3.60;;;0.40;99.90;;;;;;5003637;28;20485;-68
2023/01/20 17:31:35;;;;;;;7.35;4.53;;;0.40;99.90;;;;;;5005512;28;20229;-70
2023/01/20 17:34:02;;;;;;;6.38;4.35;;;0.40;99.90;;;;;;5005857;28;20597;-66
2023/01/20 17:36:28;;;;;;;7.20;5.85;;;0.40;99.90;;;;;;5011914;28;20178;-66
2023/01/20 17:38:54;;;;;;;4.65;4.25;;;0.30;99.90;;;;;;5004654;28;20174;-68
2023/01/20 17:41:19;;;;;;;6.23;5.30;;;0.30;99.90;;;;;;5007594;28;20629;-68
2023/01/20 17:43:45;;;;;;;6.80;5.10;;;0.20;99.90;;;;;;5013576;28;20197;-65
2023/01/20 17:46:22;;;;;;;9.13;5.80;;;0.20;99.90;;;;;;5013949;28;20178;-63
2023/01/20 17:48:48;;;;;;;5.32;4.72;;;0.20;99.90;;;;;;5003269;28;20663;-64
2023/01/20 17:51:17;;;;;;;7.40;6.50;;;0.20;99.90;;;;;;4981180;28;20231;-65
2023/01/20 17:53:43;;;;;;;8.00;6.15;;;0.10;99.90;;;;;;5005571;28;20229;-66
2023/01/20 17:56:11;;;;;;;9.25;6.25;;;0.20;99.90;;;;;;5013932;28;20179;-66
2023/01/20 17:58:36;;;;;;;5.50;4.93;;;0.10;99.90;;;;;;5013397;28;20170;-67
2023/01/20 18:01:15;;;;;;;4.33;4.03;;;0.20;99.90;;;;;;5013604;28;20658;-66
2023/01/20 18:03:42;;;;;;;6.95;4.88;;;0.20;99.90;;;;;;5005234;28;20532;-65
2023/01/20 18:06:10;;;;;;;5.90;4.35;;;0.20;99.90;;;;;;5003695;28;20223;-65
2023/01/20 18:08:37;;;;;;;7.45;4.63;;;0.10;99.90;;;;;;5004789;28;20188;-64
2023/01/20 18:11:08;;;;;;;6.60;5.07;;;0.10;99.90;;;;;;5002998;28;20194;-66
2023/01/20 18:13:34;;;;;;;5.03;4.60;;;0.00;99.90;;;;;;4987303;28;20248;-66
2023/01/20 18:16:10;;;;;;;5.60;5.10;;;0.00;99.90;;;;;;5009040;28;20167;-65
2023/01/20 18:18:36;;;;;;;5.97;4.22;;;0.00;99.90;;;;;;4986618;28;20494;-66
2023/01/20 18:21:09;;;;;;;5.50;5.05;;;0.00;99.90;;;;;;5006047;28;20181;-64
2023/01/20 18:23:35;;;;;;;7.00;5.60;;;0.00;99.90;;;;;;5003184;28;20178;-64
2023/01/20 18:26:02;;;;;;;4.43;4.13;;;0.00;99.90;;;;;;5010580;28;20255;-64
2023/01/20 18:28:28;;;;;;;11.30;6.35;;;-0.10;99.90;;;;;;5013859;28;20224;-65
2023/01/20 18:30:59;;;;;;;7.23;6.53;;;-0.10;99.90;;;;;;5012694;28;20204;-66